Main page
METAR-TAF:

METAR-TAF

Airports :

Baghdad International Airport

Baghdad, Iraq

latitude: 33-15-45N, longitude: 44-14-04E, elevation: 35 m

Current weather observation

The report was made 20 minutes ago, at 04:00 UTC
Wind 4 kt from the North/Northeast
Temperature 23°C
Humidity 47%
Pressure 1013 hPa
Visibility: 8000 m
Few clouds at a height of 3000 ft
Scattered clouds at a height of 10000 ft

METAR: ORBI 170400Z 02004KT 8000 FEW030 SCT100 23/11 Q1013 NOSIG

Time: 07:20 (04:20 UTC)

Forecast

The report was made 6 hours and 20 minutes ago, at 22:00 UTC
Forecast valid from 17 at 00 UTC to 17 at 24 UTC
Wind 8 kt from the East/Southeast
Visibility: 6000 m
Scattered clouds at a height of 4000 ft
Scattered clouds at a height of 7000 ft

TAF: ORBI 162200Z 1700/1724 12008KT 6000 SCT040 SCT070

Weather observations and forecasts of more than 4000 airports (METAR and TAF reports).

The available stations are represented by yellow and red dots on the map.

Hover mouse over dot to see the name of the station.

Then click to see weather observations and forecasts.

To change the map : click on the green buttons with a black cross to zoom in, on the green button with a dash to zoom out, or on the green arrows for adjacent maps.


METAR-TAF: